Time;durP1;ratioP1;P1;durP2;ratioP2;P2;SDS_P1;SDS_P2;PMS_P1;PMS_P2;Temp;Humidity;BMP_temperature;BMP_pressure;BME280_temperature;BME280_humidity;BME280_pressure;Samples;Min_cycle;Max_cycle;Signal;HPM_P1;HPM_P2
2023/06/17 00:00:58;;;;;;;1.20;1.20;;;;;15.50;96079.00;;;;5014353;28;20194;-57
2023/06/17 00:03:25;;;;;;;1.27;1.27;;;;;15.50;96077.00;;;;5014424;28;20192;-57
2023/06/17 00:05:54;;;;;;;1.37;1.37;;;;;15.40;96076.00;;;;5014405;28;20193;-57
2023/06/17 00:08:21;;;;;;;1.13;1.13;;;;;15.40;96070.00;;;;5014328;28;20224;-56
2023/06/17 00:10:49;;;;;;;1.10;1.10;;;;;15.40;96071.00;;;;5014250;28;20661;-56
2023/06/17 00:13:19;;;;;;;2.43;1.60;;;;;15.20;96062.00;;;;5014502;28;20217;-57
2023/06/17 00:15:47;;;;;;;1.47;1.37;;;;;15.20;96060.00;;;;5014454;28;20202;-57
2023/06/17 00:18:19;;;;;;;1.10;1.10;;;;;15.30;96067.00;;;;5014374;28;20285;-56
2023/06/17 00:20:47;;;;;;;1.10;1.10;;;;;15.30;96059.00;;;;5014175;28;20544;-55
2023/06/17 00:23:16;;;;;;;1.00;1.00;;;;;15.30;96052.00;;;;5014834;28;20248;-56
2023/06/17 00:25:43;;;;;;;1.43;1.33;;;;;15.30;96059.00;;;;5013951;28;20207;-56
2023/06/17 00:28:11;;;;;;;1.73;1.63;;;;;15.30;96055.00;;;;5014733;28;20217;-56
2023/06/17 00:30:39;;;;;;;0.70;0.70;;;;;15.20;96054.00;;;;5014132;28;20198;-56
2023/06/17 00:33:06;;;;;;;1.63;1.53;;;;;15.10;96054.00;;;;5013857;28;20660;-56
2023/06/17 00:35:35;;;;;;;1.00;1.00;;;;;15.20;96050.00;;;;5014047;28;20301;-56
2023/06/17 00:38:02;;;;;;;1.07;1.07;;;;;15.20;96047.00;;;;5013851;28;20228;-56
2023/06/17 00:40:31;;;;;;;3.90;2.03;;;;;15.10;96047.00;;;;5013896;28;20208;-56
2023/06/17 00:42:59;;;;;;;0.80;0.80;;;;;14.90;96054.00;;;;5014042;28;20539;-56
2023/06/17 00:45:26;;;;;;;1.80;1.70;;;;;14.80;96046.00;;;;5013918;28;20197;-56
2023/06/17 00:47:54;;;;;;;1.50;1.33;;;;;14.80;96053.00;;;;5013872;28;20576;-57
2023/06/17 00:50:21;;;;;;;1.27;1.27;;;;;14.60;96045.00;;;;5013972;28;20193;-57
2023/06/17 00:52:53;;;;;;;1.23;1.23;;;;;14.50;96038.00;;;;5013632;28;20687;-57
2023/06/17 00:55:21;;;;;;;1.13;1.10;;;;;14.60;96037.00;;;;5013759;28;20212;-56
2023/06/17 00:57:53;;;;;;;0.90;0.90;;;;;14.60;96036.00;;;;5013772;28;20617;-56
2023/06/17 01:00:20;;;;;;;1.30;1.30;;;;;14.60;96035.00;;;;5013862;28;20182;-56
2023/06/17 01:02:48;;;;;;;1.20;1.20;;;;;14.60;96036.00;;;;5013686;28;20607;-56
2023/06/17 01:05:17;;;;;;;6.37;1.43;;;;;14.50;96039.00;;;;5013924;28;20200;-56
2023/06/17 01:07:59;;;;;;;1.57;1.47;;;;;14.50;96037.00;;;;5013348;28;20213;-56
2023/06/17 01:10:35;;;;;;;1.27;1.27;;;;;14.40;96046.00;;;;5013625;28;20488;-57
2023/06/17 01:13:05;;;;;;;0.93;0.93;;;;;14.50;96036.00;;;;5013615;28;20189;-57
2023/06/17 01:15:34;;;;;;;1.40;1.33;;;;;14.50;96029.00;;;;5013639;28;20233;-57
2023/06/17 01:18:04;;;;;;;1.10;1.10;;;;;14.50;96036.00;;;;5013478;28;20244;-57
2023/06/17 01:20:32;;;;;;;1.03;1.03;;;;;14.40;96033.00;;;;5013236;28;20193;-57
2023/06/17 01:23:01;;;;;;;1.33;1.10;;;;;14.40;96035.00;;;;5013306;28;20273;-57
2023/06/17 01:25:31;;;;;;;1.20;1.20;;;;;14.20;96028.00;;;;5013314;28;20193;-57
2023/06/17 01:28:00;;;;;;;1.37;1.37;;;;;14.30;96032.00;;;;5012673;28;20221;-57
2023/06/17 01:30:32;;;;;;;0.60;0.60;;;;;14.20;96027.00;;;;5013337;28;20692;-56
2023/06/17 01:33:00;;;;;;;1.00;1.00;;;;;14.10;96027.00;;;;5013464;28;20186;-59
2023/06/17 01:35:32;;;;;;;1.03;1.03;;;;;14.20;96025.00;;;;5013137;28;20218;-57
2023/06/17 01:38:10;;;;;;;1.30;1.30;;;;;14.10;96029.00;;;;5012811;28;20236;-57
2023/06/17 01:40:41;;;;;;;1.67;1.57;;;;;14.00;96035.00;;;;5013258;28;20189;-57
2023/06/17 01:43:09;;;;;;;7.73;2.20;;;;;14.00;96028.00;;;;5013319;28;20261;-57
2023/06/17 01:45:37;;;;;;;0.83;0.83;;;;;13.90;96030.00;;;;5012963;28;20193;-58
2023/06/17 01:48:05;;;;;;;1.77;1.67;;;;;13.80;96031.00;;;;5012872;28;20220;-56
2023/06/17 01:50:32;;;;;;;2.17;2.07;;;;;13.80;96027.00;;;;5012929;28;20193;-58
2023/06/17 01:52:59;;;;;;;1.90;1.80;;;;;13.70;96034.00;;;;5011614;28;20197;-57
2023/06/17 01:55:27;;;;;;;1.70;1.60;;;;;13.40;96032.00;;;;5012964;28;20267;-57
2023/06/17 01:57:56;;;;;;;1.43;1.37;;;;;13.50;96027.00;;;;5012624;28;20217;-56
2023/06/17 02:00:26;;;;;;;1.00;1.00;;;;;13.60;96033.00;;;;5012829;28;20533;-56
2023/06/17 02:02:53;;;;;;;1.70;1.60;;;;;13.70;96028.00;;;;5012796;28;20201;-56
2023/06/17 02:05:21;;;;;;;4.20;2.43;;;;;13.70;96025.00;;;;5012961;28;20194;-56
2023/06/17 02:07:48;;;;;;;0.97;0.97;;;;;13.80;96023.00;;;;5012727;28;20221;-55
2023/06/17 02:10:16;;;;;;;1.93;1.80;;;;;13.70;96015.00;;;;5012717;28;20201;-55
2023/06/17 02:12:43;;;;;;;1.37;1.30;;;;;13.70;96021.00;;;;5012885;28;20562;-56
2023/06/17 02:15:12;;;;;;;1.43;1.43;;;;;13.70;96012.00;;;;5012886;28;20213;-56
2023/06/17 02:17:42;;;;;;;1.30;1.20;;;;;13.70;96014.00;;;;5012600;28;20685;-56
2023/06/17 02:20:11;;;;;;;2.53;1.83;;;;;13.60;96009.00;;;;5012077;28;20563;-56
2023/06/17 02:22:39;;;;;;;1.10;1.10;;;;;13.60;96008.00;;;;5012603;28;20193;-56
2023/06/17 02:25:07;;;;;;;1.40;1.30;;;;;13.50;96012.00;;;;5012544;28;20194;-56
2023/06/17 02:27:34;;;;;;;1.33;1.23;;;;;13.50;96004.00;;;;5012903;28;20228;-56
2023/06/17 02:30:02;;;;;;;1.57;1.47;;;;;13.50;96011.00;;;;5012627;28;20201;-56
2023/06/17 02:32:31;;;;;;;2.73;2.37;;;;;13.50;95998.00;;;;5012745;28;20255;-56
2023/06/17 02:34:58;;;;;;;1.77;1.67;;;;;13.40;95995.00;;;;5012714;28;20217;-56
2023/06/17 02:37:26;;;;;;;2.13;1.97;;;;;13.00;95991.00;;;;5012604;28;20229;-56
2023/06/17 02:39:53;;;;;;;1.23;1.17;;;;;13.00;95998.00;;;;5015335;28;20196;-56
2023/06/17 02:42:21;;;;;;;1.63;1.53;;;;;13.10;95992.00;;;;5016015;28;20198;-56
2023/06/17 02:44:48;;;;;;;1.00;1.00;;;;;13.20;95999.00;;;;5016259;28;20185;-56
2023/06/17 02:47:16;;;;;;;0.90;0.90;;;;;13.10;95998.00;;;;5015897;28;20214;-56
2023/06/17 02:49:44;;;;;;;2.17;2.07;;;;;13.10;95991.00;;;;5015813;28;20200;-55
2023/06/17 02:52:12;;;;;;;0.90;0.90;;;;;13.10;95988.00;;;;5015777;28;20197;-56
2023/06/17 02:54:39;;;;;;;2.20;1.83;;;;;13.10;95991.00;;;;5015684;28;20224;-56
2023/06/17 02:57:07;;;;;;;1.37;1.27;;;;;13.00;95995.00;;;;5015598;28;20221;-56
2023/06/17 02:59:36;;;;;;;2.07;1.97;;;;;13.00;96006.00;;;;5015653;28;20201;-57
2023/06/17 03:02:03;;;;;;;0.70;0.70;;;;;12.90;96001.00;;;;5015833;28;20631;-58
2023/06/17 03:04:35;;;;;;;2.40;2.23;;;;;12.90;96006.00;;;;5015860;28;20291;-56
2023/06/17 03:07:04;;;;;;;2.33;2.13;;;;;12.90;95998.00;;;;5015775;28;20654;-57
2023/06/17 03:09:32;;;;;;;1.37;1.27;;;;;13.00;96005.00;;;;5015501;28;20277;-57
2023/06/17 03:12:02;;;;;;;1.60;1.37;;;;;12.90;96001.00;;;;5015448;28;20198;-57
2023/06/17 03:14:29;;;;;;;1.10;1.10;;;;;12.90;96000.00;;;;5015246;28;20628;-57
2023/06/17 03:16:59;;;;;;;1.87;1.70;;;;;12.90;95991.00;;;;5015353;28;20285;-56
2023/06/17 03:19:26;;;;;;;1.90;0.70;;;;;12.90;95995.00;;;;5015299;28;20229;-56
2023/06/17 03:21:53;;;;;;;1.70;1.60;;;;;13.00;96006.00;;;;5015287;28;20204;-56
2023/06/17 03:24:22;;;;;;;1.77;1.67;;;;;13.10;95997.00;;;;5015409;28;20197;-56
2023/06/17 03:26:51;;;;;;;1.33;1.33;;;;;13.00;95999.00;;;;5015073;28;20197;-58
2023/06/17 03:29:18;;;;;;;1.10;1.10;;;;;13.00;95999.00;;;;5015645;28;20219;-56
2023/06/17 03:31:46;;;;;;;1.23;1.23;;;;;13.10;95999.00;;;;5015325;28;20193;-56
2023/06/17 03:34:13;;;;;;;0.77;0.77;;;;;13.10;96002.00;;;;5014873;28;20194;-56
2023/06/17 03:36:40;;;;;;;2.00;1.80;;;;;13.10;96010.00;;;;5014907;28;20692;-58
2023/06/17 03:39:08;;;;;;;1.20;1.20;;;;;12.90;96006.00;;;;5014783;28;20221;-57
2023/06/17 03:41:37;;;;;;;2.57;1.50;;;;;12.90;96003.00;;;;5015272;28;20189;-57
2023/06/17 03:44:05;;;;;;;1.87;1.53;;;;;12.90;96007.00;;;;5015503;28;20198;-57
2023/06/17 03:46:32;;;;;;;0.97;0.97;;;;;12.90;96002.00;;;;5015471;28;20272;-57
2023/06/17 03:49:00;;;;;;;1.70;1.60;;;;;12.90;96004.00;;;;5014297;28;20271;-56
2023/06/17 03:51:27;;;;;;;1.50;1.40;;;;;13.00;96002.00;;;;5014852;28;20244;-56
2023/06/17 03:53:55;;;;;;;1.13;1.13;;;;;13.10;96003.00;;;;5014552;28;20280;-56
2023/06/17 03:56:22;;;;;;;1.67;1.57;;;;;13.10;95998.00;;;;5014721;28;20575;-56
2023/06/17 03:58:53;;;;;;;1.10;1.10;;;;;13.10;95996.00;;;;5014423;28;20213;-57
2023/06/17 04:01:21;;;;;;;1.27;1.27;;;;;12.90;96013.00;;;;5014751;28;20256;-56
2023/06/17 04:03:48;;;;;;;5.50;1.00;;;;;13.00;96004.00;;;;5014981;28;20280;-56
2023/06/17 04:06:16;;;;;;;1.57;1.47;;;;;12.90;96007.00;;;;5014789;28;20192;-56
2023/06/17 04:08:44;;;;;;;1.10;1.10;;;;;12.90;96005.00;;;;5014811;28;20316;-56
2023/06/17 04:11:11;;;;;;;1.80;1.70;;;;;13.00;95995.00;;;;5014847;28;20272;-56
2023/06/17 04:13:39;;;;;;;1.33;1.27;;;;;13.10;96007.00;;;;5014248;28;20202;-56
2023/06/17 04:16:08;;;;;;;1.37;1.27;;;;;13.10;95999.00;;;;5014073;28;20225;-56
2023/06/17 04:18:35;;;;;;;1.47;1.37;;;;;13.10;96008.00;;;;5014264;28;20293;-56
2023/06/17 04:21:02;;;;;;;1.07;1.07;;;;;13.00;96007.00;;;;5014124;28;20248;-56
2023/06/17 04:23:30;;;;;;;3.50;2.20;;;;;13.10;96007.00;;;;5014088;28;20196;-56
2023/06/17 04:25:57;;;;;;;1.60;1.50;;;;;13.00;96009.00;;;;5014067;28;20185;-56
2023/06/17 04:28:25;;;;;;;1.13;1.13;;;;;13.10;96007.00;;;;5013966;28;20221;-56
2023/06/17 04:30:52;;;;;;;3.03;1.30;;;;;13.10;96007.00;;;;5014007;28;20201;-56
2023/06/17 04:33:24;;;;;;;0.93;0.93;;;;;13.10;96011.00;;;;5013982;28;20197;-56
2023/06/17 04:35:51;;;;;;;2.03;1.63;;;;;13.10;96004.00;;;;5013951;28;20212;-56
2023/06/17 04:38:20;;;;;;;1.00;1.00;;;;;13.20;95999.00;;;;5013850;28;20236;-56
2023/06/17 04:40:52;;;;;;;1.90;1.80;;;;;13.20;96005.00;;;;5012514;28;20208;-58
2023/06/17 04:43:22;;;;;;;1.10;1.10;;;;;13.20;96003.00;;;;5014068;28;20190;-57
2023/06/17 04:45:51;;;;;;;1.33;1.30;;;;;13.30;95998.00;;;;5013790;28;20201;-57
2023/06/17 04:48:19;;;;;;;1.20;1.20;;;;;13.20;95994.00;;;;5013879;28;20225;-57
2023/06/17 04:50:48;;;;;;;0.97;0.97;;;;;13.30;95997.00;;;;5013694;28;20193;-57
2023/06/17 04:53:16;;;;;;;1.03;1.03;;;;;13.20;95994.00;;;;5013916;28;20221;-57
2023/06/17 04:55:43;;;;;;;1.60;1.50;;;;;13.30;96000.00;;;;5013539;28;20576;-57
2023/06/17 04:58:11;;;;;;;0.90;0.90;;;;;13.60;95997.00;;;;5013913;28;20221;-58
2023/06/17 05:00:38;;;;;;;1.07;1.07;;;;;13.70;95999.00;;;;5013148;28;20201;-57
2023/06/17 05:03:05;;;;;;;2.73;2.33;;;;;13.90;95999.00;;;;5013675;28;20267;-57
2023/06/17 05:05:33;;;;;;;1.03;1.03;;;;;14.00;95994.00;;;;5013697;28;20236;-57
2023/06/17 05:08:02;;;;;;;0.77;0.77;;;;;14.00;95991.00;;;;5013323;28;20754;-57
2023/06/17 05:10:29;;;;;;;0.80;0.80;;;;;14.10;95999.00;;;;5013710;28;20280;-57
2023/06/17 05:12:56;;;;;;;1.13;1.13;;;;;14.00;95997.00;;;;5013288;28;20202;-57
2023/06/17 05:15:24;;;;;;;1.73;1.30;;;;;14.00;95994.00;;;;5013366;28;20217;-57
2023/06/17 05:17:52;;;;;;;2.27;2.03;;;;;14.00;95997.00;;;;5013208;28;20237;-57
2023/06/17 05:20:19;;;;;;;1.20;1.20;;;;;14.10;96003.00;;;;5013523;28;20536;-57
2023/06/17 05:22:46;;;;;;;1.37;1.37;;;;;14.20;96000.00;;;;5013463;28;20201;-57
2023/06/17 05:25:15;;;;;;;3.23;2.20;;;;;14.30;96011.00;;;;5013225;28;20189;-57
2023/06/17 05:27:43;;;;;;;1.13;1.13;;;;;14.40;96006.00;;;;5013118;28;20220;-57
2023/06/17 05:30:11;;;;;;;1.07;1.07;;;;;14.30;96001.00;;;;5013823;28;20194;-57
2023/06/17 05:32:39;;;;;;;1.63;1.53;;;;;14.40;96001.00;;;;5013142;28;20317;-57
2023/06/17 05:35:07;;;;;;;2.00;1.90;;;;;14.50;95998.00;;;;5013506;28;20217;-57
2023/06/17 05:37:35;;;;;;;1.20;1.20;;;;;14.60;96008.00;;;;5011645;28;20316;-57
2023/06/17 05:40:02;;;;;;;1.20;1.20;;;;;14.70;96004.00;;;;5013357;28;20181;-57
2023/06/17 05:42:31;;;;;;;1.37;1.37;;;;;14.80;96010.00;;;;5013003;28;20661;-57
2023/06/17 05:44:58;;;;;;;1.13;1.13;;;;;14.90;96003.00;;;;5013243;28;20204;-56
2023/06/17 05:47:26;;;;;;;1.50;1.03;;;;;15.10;96009.00;;;;5012920;28;20228;-56
2023/06/17 05:49:53;;;;;;;1.20;1.20;;;;;15.20;96014.00;;;;5013216;28;20197;-55
2023/06/17 05:52:20;;;;;;;1.07;1.07;;;;;15.20;96008.00;;;;5013115;28;20197;-55
2023/06/17 05:54:48;;;;;;;1.60;1.50;;;;;15.20;96012.00;;;;5012861;28;20240;-56
2023/06/17 05:57:15;;;;;;;2.03;1.93;;;;;15.30;96009.00;;;;5013081;28;20221;-56
2023/06/17 05:59:44;;;;;;;2.43;2.23;;;;;15.50;96016.00;;;;5012841;28;20198;-56
2023/06/17 06:02:12;;;;;;;1.73;1.63;;;;;15.70;96009.00;;;;5013050;28;20673;-56
2023/06/17 06:04:39;;;;;;;0.97;0.97;;;;;15.90;96018.00;;;;5012992;28;20545;-55
2023/06/17 06:07:07;;;;;;;1.30;1.30;;;;;15.90;96017.00;;;;5013084;28;20633;-56
2023/06/17 06:09:35;;;;;;;1.20;1.20;;;;;15.80;96016.00;;;;5012738;28;20204;-58
2023/06/17 06:12:03;;;;;;;2.47;2.37;;;;;16.00;96010.00;;;;5013161;28;20201;-55
2023/06/17 06:14:30;;;;;;;4.43;2.40;;;;;16.10;96015.00;;;;5016666;28;20624;-54
2023/06/17 06:16:59;;;;;;;1.20;1.10;;;;;15.90;96012.00;;;;5016342;28;20213;-55
2023/06/17 06:19:26;;;;;;;1.90;1.73;;;;;16.00;96012.00;;;;5016477;28;20284;-53
2023/06/17 06:21:53;;;;;;;1.50;1.43;;;;;16.20;96015.00;;;;5016386;28;20217;-54
2023/06/17 06:24:21;;;;;;;1.23;1.13;;;;;16.40;96021.00;;;;5016333;28;20190;-53
2023/06/17 06:26:48;;;;;;;0.50;0.50;;;;;16.60;96016.00;;;;5016183;28;20189;-53
2023/06/17 06:29:16;;;;;;;1.37;1.37;;;;;16.70;96015.00;;;;5016329;28;20700;-57
2023/06/17 06:31:44;;;;;;;3.60;1.47;;;;;16.90;96016.00;;;;5016143;28;20586;-53
2023/06/17 06:34:12;;;;;;;9.03;1.67;;;;;17.00;96017.00;;;;5016113;28;20194;-53
2023/06/17 06:36:40;;;;;;;3.97;2.13;;;;;17.10;96015.00;;;;5016006;28;20289;-54
2023/06/17 06:39:07;;;;;;;1.00;1.00;;;;;17.30;96022.00;;;;5016014;28;20217;-54
2023/06/17 06:41:35;;;;;;;1.07;1.07;;;;;17.30;96021.00;;;;5015880;28;20194;-56
2023/06/17 06:44:02;;;;;;;0.70;0.70;;;;;17.50;96026.00;;;;5015830;28;20221;-53
2023/06/17 06:46:31;;;;;;;1.70;1.60;;;;;17.60;96022.00;;;;5016041;28;20561;-53
2023/06/17 06:48:59;;;;;;;1.30;1.30;;;;;17.90;96022.00;;;;5016307;28;20557;-53
2023/06/17 06:51:27;;;;;;;1.57;1.47;;;;;18.00;96027.00;;;;5016706;28;20201;-53
2023/06/17 06:53:55;;;;;;;2.63;1.73;;;;;18.10;96017.00;;;;5015983;28;20197;-54
2023/06/17 06:56:22;;;;;;;1.70;1.50;;;;;18.30;96028.00;;;;5016169;28;20225;-54
2023/06/17 06:58:49;;;;;;;1.37;1.17;;;;;18.40;96023.00;;;;5015580;28;20346;-52
2023/06/17 07:01:17;;;;;;;1.47;1.37;;;;;18.40;96027.00;;;;5015981;28;20208;-54
2023/06/17 07:03:45;;;;;;;1.93;1.83;;;;;18.50;96023.00;;;;5015628;28;20205;-55
2023/06/17 07:06:12;;;;;;;1.23;1.23;;;;;18.80;96030.00;;;;5015992;28;20240;-55
2023/06/17 07:08:41;;;;;;;1.30;1.20;;;;;18.80;96021.00;;;;5015257;28;20564;-54
2023/06/17 07:11:08;;;;;;;0.80;0.80;;;;;19.20;96026.00;;;;5015495;28;20197;-54
2023/06/17 07:13:35;;;;;;;1.20;1.10;;;;;19.40;96023.00;;;;5015785;28;20354;-55
2023/06/17 07:16:04;;;;;;;1.60;1.50;;;;;19.50;96021.00;;;;5015252;28;20228;-54
2023/06/17 07:18:31;;;;;;;2.40;1.87;;;;;19.60;96029.00;;;;5015180;28;20727;-54
2023/06/17 07:20:59;;;;;;;1.20;1.10;;;;;19.90;96024.00;;;;5015212;28;20197;-54
2023/06/17 07:23:26;;;;;;;1.37;1.27;;;;;20.00;96027.00;;;;5015317;28;20276;-55
2023/06/17 07:25:55;;;;;;;1.53;1.43;;;;;20.20;96017.00;;;;5014743;28;20193;-55
2023/06/17 07:28:23;;;;;;;1.10;1.10;;;;;20.30;96024.00;;;;5015334;28;20557;-54
2023/06/17 07:30:50;;;;;;;1.90;1.80;;;;;20.50;96017.00;;;;5015535;28;20311;-54
2023/06/17 07:33:17;;;;;;;1.20;1.10;;;;;20.70;96016.00;;;;5015023;28;20272;-53
2023/06/17 07:35:45;;;;;;;1.25;1.10;;;;;20.90;96020.00;;;;5014870;28;20225;-54
2023/06/17 07:38:12;;;;;;;1.05;1.05;;;;;21.10;96016.00;;;;5031227;22;20285;-61
2023/06/17 07:40:40;;;;;;;0.90;0.90;;;;;21.30;96014.00;;;;5034715;28;20185;-61
2023/06/17 07:43:10;;;;;;;1.45;1.40;;;;;21.40;96012.00;;;;5034149;28;20203;-60
2023/06/17 07:45:37;;;;;;;0.80;0.80;;;;;21.50;96006.00;;;;5034403;28;20561;-59
2023/06/17 07:48:05;;;;;;;1.35;1.35;;;;;21.70;96011.00;;;;5016469;28;20196;-60
2023/06/17 07:50:32;;;;;;;1.65;1.55;;;;;21.90;96009.00;;;;5034551;28;20270;-60
2023/06/17 07:53:00;;;;;;;3.22;1.48;;;;;22.00;96006.00;;;;5034392;28;20280;-61
2023/06/17 07:55:28;;;;;;;0.98;0.98;;;;;22.20;96002.00;;;;5016320;28;20222;-60
2023/06/17 07:57:56;;;;;;;1.15;1.05;;;;;22.30;96005.00;;;;5034160;28;20204;-61
2023/06/17 08:00:25;;;;;;;1.15;1.15;;;;;22.30;96003.00;;;;5016346;28;20204;-62
2023/06/17 08:02:52;;;;;;;2.35;1.20;;;;;22.50;96002.00;;;;5033996;28;20188;-60
2023/06/17 08:05:20;;;;;;;1.08;1.08;;;;;22.50;96000.00;;;;5034224;28;20203;-60
2023/06/17 08:07:47;;;;;;;0.93;0.93;;;;;22.60;96005.00;;;;5034328;28;20193;-61
2023/06/17 08:10:15;;;;;;;1.05;1.05;;;;;22.80;95996.00;;;;5033948;28;20228;-61
2023/06/17 08:12:42;;;;;;;1.17;1.08;;;;;23.00;95996.00;;;;5033800;28;20200;-60
2023/06/17 08:15:10;;;;;;;0.82;0.82;;;;;23.10;95999.00;;;;5033755;28;20189;-61
2023/06/17 08:17:40;;;;;;;1.02;1.02;;;;;23.40;95993.00;;;;5015936;28;20227;-61
2023/06/17 08:20:09;;;;;;;4.78;1.73;;;;;23.70;95990.00;;;;5033655;28;20216;-61
2023/06/17 08:22:37;;;;;;;1.55;1.45;;;;;23.90;95991.00;;;;5033759;28;20670;-61
2023/06/17 08:25:05;;;;;;;1.55;1.45;;;;;23.90;95981.00;;;;5033723;28;20197;-61
2023/06/17 08:27:33;;;;;;;3.92;1.45;;;;;24.00;95982.00;;;;5033476;28;20193;-61
2023/06/17 08:30:01;;;;;;;1.02;1.00;;;;;24.20;95983.00;;;;5033227;28;20212;-61
2023/06/17 08:32:28;;;;;;;0.90;0.85;;;;;24.20;95979.00;;;;5033037;28;20313;-61
2023/06/17 08:35:00;;;;;;;1.15;1.15;;;;;24.10;95993.00;;;;5015529;28;20543;-61
2023/06/17 08:37:27;;;;;;;1.10;1.08;;;;;23.50;95983.00;;;;5032212;28;20204;-60
2023/06/17 08:39:55;;;;;;;1.17;1.13;;;;;23.70;95984.00;;;;5033130;28;20212;-60
2023/06/17 08:42:23;;;;;;;1.30;1.30;;;;;23.60;95989.00;;;;5033078;28;20656;-61
2023/06/17 08:44:52;;;;;;;1.35;1.27;;;;;23.50;95983.00;;;;5033049;28;20204;-61
2023/06/17 08:47:19;;;;;;;0.70;0.70;;;;;23.50;95990.00;;;;5032944;28;20193;-61
2023/06/17 08:49:47;;;;;;;0.93;0.93;;;;;23.50;95991.00;;;;5032838;28;20239;-60
2023/06/17 08:52:17;;;;;;;1.10;1.08;;;;;23.60;95997.00;;;;5015212;28;20203;-60
2023/06/17 08:54:46;;;;;;;0.80;0.80;;;;;23.50;95988.00;;;;5033153;28;20732;-61
2023/06/17 08:57:14;;;;;;;1.35;1.35;;;;;23.70;95990.00;;;;5032791;28;20220;-61
2023/06/17 08:59:42;;;;;;;0.70;0.70;;;;;23.80;95997.00;;;;5032912;28;20242;-61
2023/06/17 09:02:10;;;;;;;0.90;0.90;;;;;23.90;95996.00;;;;5032752;28;20197;-61
2023/06/17 09:04:38;;;;;;;0.93;0.93;;;;;24.00;96001.00;;;;5015050;28;20197;-61
2023/06/17 09:07:08;;;;;;;1.08;1.08;;;;;23.90;95996.00;;;;5033007;28;20211;-61
2023/06/17 09:09:37;;;;;;;0.90;0.90;;;;;24.00;96001.00;;;;5032777;28;20621;-60
2023/06/17 09:12:08;;;;;;;1.13;1.13;;;;;24.00;96000.00;;;;5032548;28;20269;-61
2023/06/17 09:14:35;;;;;;;1.17;1.08;;;;;23.90;95999.00;;;;5015083;28;20260;-61
2023/06/17 09:17:03;;;;;;;0.85;0.85;;;;;23.90;95994.00;;;;5032587;28;20208;-61
2023/06/17 09:19:32;;;;;;;0.80;0.80;;;;;23.90;95995.00;;;;5032685;28;20278;-61
2023/06/17 09:22:06;;;;;;;0.55;0.55;;;;;24.10;95994.00;;;;5032635;28;20223;-61
2023/06/17 09:24:33;;;;;;;1.17;1.17;;;;;24.20;95989.00;;;;5032875;28;20192;-61
2023/06/17 09:27:03;;;;;;;1.08;1.08;;;;;24.40;96001.00;;;;5032586;28;20264;-61
2023/06/17 09:29:31;;;;;;;0.70;0.70;;;;;24.40;96006.00;;;;5032414;28;20212;-61
2023/06/17 09:32:02;;;;;;;0.98;0.98;;;;;24.30;95997.00;;;;5014757;28;20729;-61
2023/06/17 09:34:29;;;;;;;0.93;0.93;;;;;24.20;96001.00;;;;5032799;28;20263;-61
2023/06/17 09:37:00;;;;;;;0.80;0.80;;;;;24.30;95985.00;;;;5032478;28;20217;-61
2023/06/17 09:39:31;;;;;;;0.70;0.70;;;;;24.50;95987.00;;;;5032179;28;20715;-61
2023/06/17 09:42:08;;;;;;;1.00;1.00;;;;;25.00;95987.00;;;;5014857;28;20251;-61
2023/06/17 09:44:38;;;;;;;0.95;0.95;;;;;25.00;95992.00;;;;5032633;28;20181;-61
2023/06/17 09:47:09;;;;;;;1.20;1.20;;;;;24.70;95986.00;;;;5032431;28;20188;-61
2023/06/17 09:49:37;;;;;;;1.73;1.63;;;;;24.60;95993.00;;;;5036454;28;20315;-62
2023/06/17 09:52:08;;;;;;;1.08;1.08;;;;;24.40;95991.00;;;;5035962;28;20331;-61
2023/06/17 09:54:37;;;;;;;0.80;0.80;;;;;24.10;96004.00;;;;5036340;28;20181;-60
2023/06/17 09:57:09;;;;;;;0.77;0.77;;;;;24.00;95988.00;;;;5036848;28;20217;-61
2023/06/17 09:59:36;;;;;;;1.20;1.20;;;;;24.10;95995.00;;;;5036756;28;20610;-60
2023/06/17 10:02:04;;;;;;;1.35;1.25;;;;;24.20;95981.00;;;;5036658;28;20196;-61
2023/06/17 10:04:31;;;;;;;1.10;1.00;;;;;24.40;95980.00;;;;5036256;28;20197;-61
2023/06/17 10:07:00;;;;;;;1.25;1.15;;;;;25.00;95987.00;;;;5036778;28;20208;-61
2023/06/17 10:09:28;;;;;;;0.90;0.90;;;;;25.10;95977.00;;;;5036294;28;20550;-60
2023/06/17 10:11:56;;;;;;;1.05;0.95;;;;;25.20;95956.00;;;;5036151;28;20573;-60
2023/06/17 10:14:29;;;;;;;0.93;0.93;;;;;25.20;95967.00;;;;5035847;28;20551;-60
2023/06/17 10:16:57;;;;;;;0.93;0.93;;;;;25.20;95955.00;;;;5036150;28;20540;-60
2023/06/17 10:19:28;;;;;;;1.02;1.00;;;;;25.50;95957.00;;;;5035686;28;20212;-60
2023/06/17 10:21:57;;;;;;;1.00;1.00;;;;;25.60;95974.00;;;;5036085;28;20177;-60
2023/06/17 10:24:26;;;;;;;0.70;0.70;;;;;25.40;95958.00;;;;5035715;28;20196;-60
2023/06/17 10:26:54;;;;;;;0.93;0.93;;;;;25.70;95961.00;;;;5035721;28;20196;-60
2023/06/17 10:29:21;;;;;;;1.50;1.40;;;;;25.50;95955.00;;;;5035365;28;20686;-61
2023/06/17 10:31:50;;;;;;;1.48;1.38;;;;;25.60;95954.00;;;;5035496;28;20192;-60
2023/06/17 10:34:21;;;;;;;1.35;1.25;;;;;25.90;95952.00;;;;5035298;28;20279;-60
2023/06/17 10:36:51;;;;;;;1.65;1.55;;;;;25.90;95955.00;;;;5035476;28;20207;-60
2023/06/17 10:39:19;;;;;;;0.90;0.90;;;;;26.20;95949.00;;;;5035330;28;20715;-61
2023/06/17 10:41:57;;;;;;;0.60;0.60;;;;;26.20;95959.00;;;;5035465;28;20556;-61
2023/06/17 10:44:40;;;;;;;1.48;1.42;;;;;26.40;95967.00;;;;5035761;28;20648;-61
2023/06/17 10:47:21;;;;;;;1.27;1.17;;;;;26.10;95957.00;;;;5035516;28;20177;-60
2023/06/17 10:49:49;;;;;;;0.57;0.57;;;;;26.40;95953.00;;;;5035095;28;20212;-61
2023/06/17 10:52:17;;;;;;;2.92;1.23;;;;;26.30;95950.00;;;;5035176;28;20563;-61
2023/06/17 10:54:49;;;;;;;0.80;0.80;;;;;26.20;95945.00;;;;5034900;28;20687;-61
2023/06/17 10:57:17;;;;;;;0.98;0.93;;;;;26.40;95943.00;;;;5035032;28;20201;-61
2023/06/17 10:59:44;;;;;;;0.77;0.77;;;;;26.70;95943.00;;;;5033749;28;20216;-61
2023/06/17 11:02:12;;;;;;;0.95;0.95;;;;;26.70;95949.00;;;;5035147;28;20189;-60
2023/06/17 11:04:42;;;;;;;1.08;1.08;;;;;26.90;95939.00;;;;5034857;28;20192;-59
2023/06/17 11:07:09;;;;;;;0.90;0.90;;;;;27.10;95937.00;;;;5035034;28;20637;-59
2023/06/17 11:09:38;;;;;;;1.48;1.38;;;;;27.20;95963.00;;;;5034946;28;20296;-59
2023/06/17 11:12:07;;;;;;;2.05;1.75;;;;;26.10;95962.00;;;;5034560;28;20196;-59
2023/06/17 11:14:37;;;;;;;1.08;1.08;;;;;25.80;95966.00;;;;5034625;28;20204;-58
2023/06/17 11:17:05;;;;;;;1.08;1.08;;;;;25.60;95964.00;;;;5034959;28;20287;-59
2023/06/17 11:19:32;;;;;;;0.43;0.43;;;;;25.80;95953.00;;;;5034600;28;20254;-59
2023/06/17 11:22:03;;;;;;;0.77;0.77;;;;;26.00;95936.00;;;;5016805;28;20223;-59
2023/06/17 11:24:31;;;;;;;1.00;1.00;;;;;26.40;95941.00;;;;5034707;28;20180;-59
2023/06/17 11:26:58;;;;;;;6.60;1.17;;;;;26.90;95942.00;;;;5034566;28;20307;-59
2023/06/17 11:29:27;;;;;;;0.82;0.82;;;;;26.40;95942.00;;;;5034815;28;20220;-59
2023/06/17 11:31:55;;;;;;;0.65;0.65;;;;;26.30;95931.00;;;;5034278;28;20219;-59
2023/06/17 11:34:23;;;;;;;1.30;1.20;;;;;26.50;95925.00;;;;5034342;28;20185;-59
2023/06/17 11:36:53;;;;;;;1.00;1.00;;;;;26.50;95929.00;;;;5034201;28;20203;-59
2023/06/17 11:39:23;;;;;;;1.60;1.33;;;;;26.70;95921.00;;;;5033974;28;20252;-60
2023/06/17 11:41:52;;;;;;;1.08;1.08;;;;;27.20;95918.00;;;;5016366;28;20197;-60
2023/06/17 11:44:20;;;;;;;0.77;0.77;;;;;27.80;95915.00;;;;5034033;28;20208;-59
2023/06/17 11:46:51;;;;;;;0.80;0.80;;;;;27.90;95920.00;;;;5033951;28;20602;-60
2023/06/17 11:49:18;;;;;;;0.80;0.80;;;;;27.10;95929.00;;;;5016106;28;20220;-60
2023/06/17 11:51:49;;;;;;;0.93;0.93;;;;;27.20;95923.00;;;;5034026;28;20556;-60
2023/06/17 11:54:19;;;;;;;0.73;0.73;;;;;26.80;95928.00;;;;5034279;28;20184;-59
2023/06/17 11:56:49;;;;;;;0.88;0.88;;;;;26.90;95924.00;;;;5034096;28;20177;-60
2023/06/17 11:59:19;;;;;;;1.75;1.65;;;;;27.20;95922.00;;;;5034242;28;20300;-59
2023/06/17 12:01:47;;;;;;;0.77;0.77;;;;;27.90;95924.00;;;;5034368;28;20276;-60
2023/06/17 12:04:15;;;;;;;0.70;0.70;;;;;28.10;95937.00;;;;5033984;28;20287;-60
2023/06/17 12:06:42;;;;;;;1.95;1.40;;;;;28.10;95914.00;;;;5015999;28;20200;-60
2023/06/17 12:09:10;;;;;;;1.63;1.50;;;;;28.40;95906.00;;;;5033996;28;20295;-60
2023/06/17 12:11:40;;;;;;;1.23;1.23;;;;;28.80;95911.00;;;;5033433;28;20200;-60
2023/06/17 12:14:10;;;;;;;2.17;1.55;;;;;29.10;95911.00;;;;5034088;28;20196;-60
2023/06/17 12:16:41;;;;;;;1.45;1.35;;;;;28.50;95906.00;;;;5034472;28;20199;-59
2023/06/17 12:19:15;;;;;;;0.90;0.90;;;;;28.70;95906.00;;;;5033487;28;20252;-60
2023/06/17 12:21:43;;;;;;;1.45;1.30;;;;;28.30;95902.00;;;;5033703;28;20184;-60
2023/06/17 12:24:10;;;;;;;3.60;1.33;;;;;28.50;95898.00;;;;5033676;28;20220;-60